Time;durP1;ratioP1;P1;durP2;ratioP2;P2;SDS_P1;SDS_P2;PMS_P1;PMS_P2;Temp;Humidity;BMP_temperature;BMP_pressure;BME280_temperature;BME280_humidity;BME280_pressure;Samples;Min_cycle;Max_cycle;Signal;HPM_P1;HPM_P2
2022/04/17 00:21:24;;;;;;;1.10;1.10;;;;;;;;;;4575627;28;20174;-59
2022/04/17 00:23:50;;;;;;;0.95;0.95;;;;;;;;;;4201523;34;20453;-59
2022/04/17 00:26:16;;;;;;;1.45;1.30;;;;;;;;;;4203431;34;20126;-59
2022/04/17 00:28:42;;;;;;;2.47;1.67;;;;;;;;;;4185405;34;20116;-59
2022/04/17 00:31:08;;;;;;;1.45;1.20;;;;;;;;;;4201385;34;20197;-58
2022/04/17 00:33:34;;;;;;;1.98;1.60;;;;;;;;;;4195376;34;20205;-59
2022/04/17 00:36:00;;;;;;;1.08;1.00;;;;;;;;;;4205102;34;20201;-61
2022/04/17 00:38:26;;;;;;;2.08;1.50;;;;;;;;;;4204826;34;20132;-59
2022/04/17 00:40:56;;;;;;;1.60;1.50;;;;;;;;;;4194345;34;20474;-59
2022/04/17 00:43:26;;;;;;;1.98;1.50;;;;;;;;;;4190931;34;20102;-59
2022/04/17 00:45:53;;;;;;;1.30;1.20;;;;;;;;;;4190993;34;20094;-59
2022/04/17 00:48:19;;;;;;;1.95;1.62;;;;;;;;;;4190729;34;20202;-59
2022/04/17 00:50:46;;;;;;;1.02;1.02;;;;;;;;;;4191123;34;20125;-59
2022/04/17 00:53:13;;;;;;;1.08;1.08;;;;;;;;;;4190999;34;20116;-60
2022/04/17 00:55:40;;;;;;;1.30;1.12;;;;;;;;;;4190899;34;20466;-59
2022/04/17 00:58:06;;;;;;;1.17;1.08;;;;;;;;;;4177829;34;20140;-59
2022/04/17 01:00:33;;;;;;;1.00;1.00;;;;;;;;;;4190766;34;20110;-59
2022/04/17 01:03:01;;;;;;;1.00;1.00;;;;;;;;;;4190804;34;20093;-60
2022/04/17 01:05:27;;;;;;;1.37;1.10;;;;;;;;;;4190774;34;20531;-61
2022/04/17 01:07:53;;;;;;;1.40;1.05;;;;;;;;;;4190671;34;20094;-61
2022/04/17 01:10:19;;;;;;;0.98;0.98;;;;;;;;;;4177857;34;20114;-62
2022/04/17 01:12:46;;;;;;;1.20;1.20;;;;;;;;;;4177778;34;20198;-59
2022/04/17 01:15:12;;;;;;;1.27;1.17;;;;;;;;;;4190662;34;20452;-62
2022/04/17 01:17:38;;;;;;;1.45;1.23;;;;;;;;;;4190570;34;20108;-59
2022/04/17 01:20:06;;;;;;;1.52;1.35;;;;;;;;;;4190627;34;20181;-59
2022/04/17 01:22:32;;;;;;;1.23;1.05;;;;;;;;;;4190418;34;20186;-60
2022/04/17 01:27:43;;;;;;;1.00;1.00;;;;;;;;;;4190568;34;20461;-60
2022/04/17 01:30:10;;;;;;;1.48;1.37;;;;;;;;;;4177990;34;20119;-60
2022/04/17 01:32:36;;;;;;;0.90;0.90;;;;;;;;;;4190459;34;20106;-59
2022/04/17 01:35:02;;;;;;;2.58;1.50;;;;;;;;;;4190751;34;20220;-60
2022/04/17 01:37:28;;;;;;;3.00;1.73;;;;;;;;;;4190292;34;20201;-60
2022/04/17 01:39:54;;;;;;;1.00;1.00;;;;;;;;;;4190679;34;20116;-59
2022/04/17 01:42:20;;;;;;;1.25;1.20;;;;;;;;;;4190538;34;20190;-59
2022/04/17 01:44:46;;;;;;;1.40;1.30;;;;;;;;;;4190370;34;20106;-59
2022/04/17 01:47:12;;;;;;;0.90;0.90;;;;;;;;;;4190102;34;20090;-59
2022/04/17 01:49:38;;;;;;;1.95;1.62;;;;;;;;;;4190610;34;20114;-59
2022/04/17 01:52:04;;;;;;;1.23;1.20;;;;;;;;;;4190728;34;20102;-60
2022/04/17 01:54:32;;;;;;;8.02;2.22;;;;;;;;;;4192388;34;20126;-58
2022/04/17 01:56:58;;;;;;;2.50;2.30;;;;;;;;;;4192163;34;20117;-59
2022/04/17 01:59:24;;;;;;;2.05;1.87;;;;;;;;;;4192237;34;20124;-59
2022/04/17 02:01:50;;;;;;;1.98;1.85;;;;;;;;;;4192279;34;20126;-60
2022/04/17 02:04:17;;;;;;;2.25;1.92;;;;;;;;;;4192192;34;20145;-60
2022/04/17 02:06:43;;;;;;;1.70;1.60;;;;;;;;;;4192140;34;20117;-60
2022/04/17 02:09:11;;;;;;;2.12;1.83;;;;;;;;;;4192109;34;20102;-60
2022/04/17 02:11:38;;;;;;;2.78;1.83;;;;;;;;;;4192406;34;20144;-59
2022/04/17 02:14:06;;;;;;;2.55;1.48;;;;;;;;;;4192372;34;20113;-60
2022/04/17 02:16:32;;;;;;;4.03;1.55;;;;;;;;;;4192277;34;20104;-60
2022/04/17 02:19:00;;;;;;;4.45;2.15;;;;;;;;;;4192123;34;20094;-60
2022/04/17 02:21:26;;;;;;;3.97;2.53;;;;;;;;;;4191967;34;20110;-60
2022/04/17 02:23:53;;;;;;;3.87;1.90;;;;;;;;;;4192213;34;20122;-60
2022/04/17 02:26:19;;;;;;;2.12;1.90;;;;;;;;;;4192157;34;20514;-61
2022/04/17 02:28:46;;;;;;;4.12;2.12;;;;;;;;;;4193952;34;20133;-60
2022/04/17 02:31:12;;;;;;;2.28;1.80;;;;;;;;;;4197309;34;20133;-60
2022/04/17 02:33:38;;;;;;;2.83;2.00;;;;;;;;;;4194903;34;20538;-61
2022/04/17 02:36:06;;;;;;;2.80;1.98;;;;;;;;;;4205176;34;20172;-60
2022/04/17 02:38:32;;;;;;;2.35;2.12;;;;;;;;;;4205741;34;20126;-60
2022/04/17 02:40:58;;;;;;;5.57;2.47;;;;;;;;;;4205750;34;20133;-61
2022/04/17 02:43:24;;;;;;;7.37;1.90;;;;;;;;;;4205592;34;20124;-62
2022/04/17 02:45:51;;;;;;;2.12;1.62;;;;;;;;;;4205743;34;20110;-62
2022/04/17 02:48:17;;;;;;;2.53;1.80;;;;;;;;;;4205728;34;20229;-68
2022/04/17 02:50:43;;;;;;;1.55;1.35;;;;;;;;;;4192938;34;20114;-65
2022/04/17 02:53:09;;;;;;;1.30;1.20;;;;;;;;;;4192729;34;20121;-63
2022/04/17 02:55:35;;;;;;;3.50;1.90;;;;;;;;;;4192724;34;20133;-66
2022/04/17 02:58:01;;;;;;;1.77;1.50;;;;;;;;;;4192781;34;20121;-63
2022/04/17 03:00:27;;;;;;;2.65;1.80;;;;;;;;;;4205540;34;20638;-60
2022/04/17 03:05:38;;;;;;;3.15;1.70;;;;;;;;;;4205189;34;20109;-63
2022/04/17 03:08:11;;;;;;;3.85;2.03;;;;;;;;;;4205337;34;20216;-64
2022/04/17 03:10:38;;;;;;;5.65;1.83;;;;;;;;;;4192775;34;20113;-60
2022/04/17 03:13:05;;;;;;;2.22;1.75;;;;;;;;;;4205640;34;20193;-60
2022/04/17 03:15:31;;;;;;;3.45;2.15;;;;;;;;;;4205470;34;20241;-61
2022/04/17 03:17:58;;;;;;;3.95;2.00;;;;;;;;;;4205597;34;20106;-66
2022/04/17 03:20:26;;;;;;;3.00;1.77;;;;;;;;;;4192816;34;20210;-62
2022/04/17 03:22:52;;;;;;;7.78;2.10;;;;;;;;;;4205272;34;20521;-60
2022/04/17 03:25:18;;;;;;;5.10;2.10;;;;;;;;;;4192513;34;20225;-64
2022/04/17 03:27:46;;;;;;;3.90;1.87;;;;;;;;;;4178704;34;20447;-64
2022/04/17 03:30:16;;;;;;;1.92;1.77;;;;;;;;;;4191510;34;20188;-65
2022/04/17 03:32:47;;;;;;;2.30;1.83;;;;;;;;;;4191514;34;20095;-64
2022/04/17 03:35:14;;;;;;;2.55;2.00;;;;;;;;;;4191026;34;20130;-62
2022/04/17 03:37:42;;;;;;;2.17;1.95;;;;;;;;;;4191681;34;20121;-63
2022/04/17 03:40:08;;;;;;;2.45;1.70;;;;;;;;;;4191723;34;20125;-63
2022/04/17 03:42:35;;;;;;;2.50;2.08;;;;;;;;;;4191614;34;20121;-63
2022/04/17 03:45:06;;;;;;;3.12;2.17;;;;;;;;;;4191297;34;20479;-61
2022/04/17 03:47:33;;;;;;;4.68;2.42;;;;;;;;;;4190220;34;20217;-61
2022/04/17 03:49:59;;;;;;;4.35;2.22;;;;;;;;;;4190490;34;20121;-61
2022/04/17 03:52:25;;;;;;;2.87;1.90;;;;;;;;;;4189538;34;20115;-62
2022/04/17 03:54:51;;;;;;;3.50;1.95;;;;;;;;;;4186640;34;20117;-60
2022/04/17 03:57:17;;;;;;;4.05;1.87;;;;;;;;;;4188501;34;20138;-63
2022/04/17 03:59:43;;;;;;;6.43;2.50;;;;;;;;;;4164541;34;20128;-66
2022/04/17 04:02:09;;;;;;;3.58;1.90;;;;;;;;;;4177003;34;20264;-61
2022/04/17 04:04:35;;;;;;;2.72;1.80;;;;;;;;;;4176867;34;20089;-62
2022/04/17 04:07:02;;;;;;;8.40;2.20;;;;;;;;;;4182953;34;20601;-59
2022/04/17 04:09:28;;;;;;;4.50;1.90;;;;;;;;;;4200966;34;20113;-60
2022/04/17 04:11:54;;;;;;;3.42;2.05;;;;;;;;;;4199290;34;20126;-62
2022/04/17 04:14:19;;;;;;;5.85;2.00;;;;;;;;;;4204586;34;20109;-62
2022/04/17 04:16:46;;;;;;;2.55;1.67;;;;;;;;;;4204699;34;20140;-61
2022/04/17 04:19:12;;;;;;;2.28;1.83;;;;;;;;;;4204793;34;20510;-62
2022/04/17 04:21:47;;;;;;;2.83;1.95;;;;;;;;;;4195905;34;20114;-62
2022/04/17 04:24:13;;;;;;;;;;;;;;;;;;4194534;34;20184;-63
2022/04/17 04:26:41;;;;;;;2.55;1.90;;;;;;;;;;4191121;34;20066;-64
2022/04/17 04:29:07;;;;;;;3.53;1.92;;;;;;;;;;4190878;34;20126;-65
2022/04/17 04:31:34;;;;;;;2.90;2.00;;;;;;;;;;4194149;34;20547;-62
2022/04/17 04:33:59;;;;;;;4.40;2.03;;;;;;;;;;4190904;34;20566;-63
2022/04/17 04:36:25;;;;;;;6.07;1.98;;;;;;;;;;4178046;34;20206;-64
2022/04/17 04:38:51;;;;;;;4.57;1.75;;;;;;;;;;4183519;34;20093;-63
2022/04/17 04:41:17;;;;;;;2.17;1.70;;;;;;;;;;4177940;34;20507;-63
2022/04/17 04:43:43;;;;;;;2.70;1.55;;;;;;;;;;4191032;34;20554;-60
2022/04/17 04:46:09;;;;;;;4.07;2.17;;;;;;;;;;4193485;34;20213;-63
2022/04/17 04:51:21;;;;;;;3.37;2.25;;;;;;;;;;4190818;34;20222;-63
2022/04/17 04:53:48;;;;;;;2.00;1.67;;;;;;;;;;4188400;34;20167;-63
2022/04/17 04:56:18;;;;;;;3.15;2.30;;;;;;;;;;4190640;34;20110;-63
2022/04/17 04:58:44;;;;;;;14.13;2.92;;;;;;;;;;4190792;34;20165;-63
2022/04/17 05:01:11;;;;;;;5.60;2.10;;;;;;;;;;4190797;34;20130;-62
2022/04/17 05:03:37;;;;;;;2.92;2.00;;;;;;;;;;4203207;34;20156;-62
2022/04/17 05:06:04;;;;;;;2.10;1.60;;;;;;;;;;4197971;34;20093;-61
2022/04/17 05:08:30;;;;;;;3.17;2.10;;;;;;;;;;4204457;34;20205;-66
2022/04/17 05:10:56;;;;;;;4.32;2.10;;;;;;;;;;4194633;34;20094;-68
2022/04/17 05:13:22;;;;;;;3.75;1.75;;;;;;;;;;4178613;34;20114;-68
2022/04/17 05:15:48;;;;;;;4.65;2.15;;;;;;;;;;4189754;34;20266;-69
2022/04/17 05:18:15;;;;;;;4.75;1.95;;;;;;;;;;4189442;34;20111;-68
2022/04/17 05:20:41;;;;;;;3.37;2.00;;;;;;;;;;4189369;34;20464;-64
2022/04/17 05:23:26;;;;;;;3.55;1.70;;;;;;;;;;4187849;34;20122;-63
2022/04/17 05:25:54;;;;;;;2.15;1.90;;;;;;;;;;4175220;34;20133;-63
2022/04/17 05:28:21;;;;;;;2.25;1.80;;;;;;;;;;4188723;34;20519;-63
2022/04/17 05:30:47;;;;;;;4.35;1.80;;;;;;;;;;4187579;34;20737;-64
2022/04/17 05:33:14;;;;;;;4.07;1.92;;;;;;;;;;4189463;34;20114;-65
2022/04/17 05:35:40;;;;;;;5.70;2.42;;;;;;;;;;4189583;34;20148;-62
2022/04/17 05:38:06;;;;;;;5.85;2.20;;;;;;;;;;4189618;34;20126;-62
2022/04/17 05:40:38;;;;;;;2.65;2.17;;;;;;;;;;4189315;34;20576;-63
2022/04/17 05:43:04;;;;;;;4.72;2.55;;;;;;;;;;4176715;34;20221;-63
2022/04/17 05:45:32;;;;;;;7.12;2.90;;;;;;;;;;4176280;34;20118;-62
2022/04/17 05:47:58;;;;;;;6.60;3.00;;;;;;;;;;4176220;34;20181;-62
2022/04/17 05:50:24;;;;;;;5.30;2.37;;;;;;;;;;4186588;34;20486;-61
2022/04/17 05:52:51;;;;;;;6.62;2.90;;;;;;;;;;4187894;34;20201;-59
2022/04/17 05:55:17;;;;;;;5.65;2.67;;;;;;;;;;4189177;34;20120;-61
2022/04/17 05:57:43;;;;;;;4.15;2.50;;;;;;;;;;4187438;34;20129;-61
2022/04/17 06:00:09;;;;;;;5.15;2.42;;;;;;;;;;4188516;34;20140;-61
2022/04/17 06:02:36;;;;;;;6.45;2.17;;;;;;;;;;4189445;34;20111;-61
2022/04/17 06:05:03;;;;;;;6.22;1.75;;;;;;;;;;4187584;34;20110;-61
2022/04/17 06:07:30;;;;;;;2.33;1.48;;;;;;;;;;4187318;34;20113;-61
2022/04/17 06:09:56;;;;;;;5.72;1.80;;;;;;;;;;4176832;34;20110;-63
2022/04/17 06:12:22;;;;;;;1.87;1.25;;;;;;;;;;4176114;34;20138;-61
2022/04/17 06:14:48;;;;;;;2.90;1.37;;;;;;;;;;4176123;34;20543;-59
2022/04/17 06:17:14;;;;;;;6.18;1.40;;;;;;;;;;4176105;34;20090;-64
2022/04/17 06:19:40;;;;;;;1.67;1.45;;;;;;;;;;4176235;34;20126;-66
2022/04/17 06:22:07;;;;;;;2.20;2.00;;;;;;;;;;4176546;34;20503;-64
2022/04/17 06:24:33;;;;;;;2.37;1.60;;;;;;;;;;4179053;34;20102;-64
2022/04/17 06:26:59;;;;;;;2.55;1.73;;;;;;;;;;4176260;34;20185;-62
2022/04/17 06:29:24;;;;;;;3.78;2.08;;;;;;;;;;4183923;34;20181;-62
2022/04/17 06:31:50;;;;;;;11.95;2.30;;;;;;;;;;4187981;34;20115;-61
2022/04/17 06:34:16;;;;;;;5.53;2.17;;;;;;;;;;4189809;34;20125;-62
2022/04/17 06:36:42;;;;;;;8.25;2.58;;;;;;;;;;4189809;34;20105;-63
2022/04/17 06:39:08;;;;;;;1.58;1.30;;;;;;;;;;4191096;34;20118;-63
2022/04/17 06:41:35;;;;;;;6.55;2.78;;;;;;;;;;4191892;34;20194;-63
2022/04/17 06:44:00;;;;;;;9.45;3.08;;;;;;;;;;4192049;34;20115;-64
2022/04/17 06:46:26;;;;;;;12.27;3.80;;;;;;;;;;4167287;34;20213;-61
2022/04/17 06:48:53;;;;;;;9.95;2.50;;;;;;;;;;4191950;34;20129;-64
2022/04/17 06:51:23;;;;;;;28.42;5.57;;;;;;;;;;4191667;34;20440;-67
2022/04/17 06:53:52;;;;;;;6.82;2.25;;;;;;;;;;4188678;34;20126;-62
2022/04/17 06:56:19;;;;;;;4.97;2.15;;;;;;;;;;4176382;34;20194;-63
2022/04/17 06:58:46;;;;;;;1.92;1.73;;;;;;;;;;4177379;34;20133;-65
2022/04/17 07:01:14;;;;;;;4.95;1.70;;;;;;;;;;4183916;34;20106;-64
2022/04/17 07:03:43;;;;;;;1.95;1.42;;;;;;;;;;4189453;34;20186;-64
2022/04/17 07:06:09;;;;;;;3.90;2.12;;;;;;;;;;4189268;34;20198;-65
2022/04/17 07:08:35;;;;;;;2.65;2.10;;;;;;;;;;4197196;34;20205;-65
2022/04/17 07:11:01;;;;;;;8.50;3.20;;;;;;;;;;4189393;34;20121;-64
2022/04/17 07:13:27;;;;;;;8.05;1.75;;;;;;;;;;4190612;34;20122;-64
2022/04/17 07:15:53;;;;;;;5.32;1.92;;;;;;;;;;4190416;34;20202;-65
2022/04/17 07:18:19;;;;;;;2.58;1.75;;;;;;;;;;4190501;34;20129;-65
2022/04/17 07:20:46;;;;;;;2.62;1.75;;;;;;;;;;4177616;34;20202;-65
2022/04/17 07:23:12;;;;;;;2.28;1.87;;;;;;;;;;4190905;34;20170;-65
2022/04/17 07:25:37;;;;;;;6.25;2.55;;;;;;;;;;4189493;34;20083;-66
2022/04/17 07:28:04;;;;;;;7.12;2.30;;;;;;;;;;4190710;34;20125;-64
2022/04/17 07:30:32;;;;;;;7.93;2.15;;;;;;;;;;4190263;34;20181;-65
2022/04/17 07:33:01;;;;;;;3.40;2.10;;;;;;;;;;4177730;34;20119;-64
2022/04/17 07:35:28;;;;;;;5.05;2.15;;;;;;;;;;4189936;34;20105;-65
2022/04/17 07:37:56;;;;;;;10.20;3.03;;;;;;;;;;4190063;34;20194;-65
2022/04/17 07:40:25;;;;;;;4.03;2.20;;;;;;;;;;4177581;34;20121;-66
2022/04/17 07:42:52;;;;;;;9.77;3.28;;;;;;;;;;4178197;34;20225;-65
2022/04/17 07:45:19;;;;;;;4.55;2.60;;;;;;;;;;4203626;34;20121;-63
2022/04/17 07:47:46;;;;;;;4.75;2.10;;;;;;;;;;4203841;34;20483;-59
2022/04/17 07:50:14;;;;;;;10.52;2.25;;;;;;;;;;4189380;34;20106;-61
2022/04/17 07:52:41;;;;;;;4.25;2.00;;;;;;;;;;4189437;34;20113;-64
2022/04/17 07:55:08;;;;;;;6.43;1.87;;;;;;;;;;4176425;34;20128;-61
2022/04/17 07:57:55;;;;;;;3.50;1.60;;;;;;;;;;4189299;34;20122;-61
2022/04/17 08:00:22;;;;;;;10.95;2.15;;;;;;;;;;4189304;34;20543;-62
2022/04/17 08:02:59;;;;;;;7.00;2.05;;;;;;;;;;4191287;34;20238;-60
2022/04/17 08:05:38;;;;;;;3.92;2.22;;;;;;;;;;4190192;34;20109;-61
2022/04/17 08:08:06;;;;;;;3.08;1.90;;;;;;;;;;4191144;34;20526;-61
2022/04/17 08:10:33;;;;;;;2.83;2.50;;;;;;;;;;4191114;34;20294;-60
2022/04/17 08:12:59;;;;;;;9.75;3.00;;;;;;;;;;4191270;34;20544;-61
2022/04/17 08:15:25;;;;;;;4.40;2.70;;;;;;;;;;4191345;34;20132;-61
2022/04/17 08:17:51;;;;;;;4.40;2.92;;;;;;;;;;4191472;34;20121;-61
2022/04/17 08:20:17;;;;;;;8.60;2.75;;;;;;;;;;4191198;34;20236;-60
2022/04/17 08:22:43;;;;;;;2.30;2.10;;;;;;;;;;4191361;34;20114;-61
2022/04/17 08:25:09;;;;;;;4.87;2.70;;;;;;;;;;4191177;34;20135;-60
2022/04/17 08:27:47;;;;;;;9.23;2.78;;;;;;;;;;4191094;34;20132;-60
2022/04/17 08:30:14;;;;;;;26.05;4.32;;;;;;;;;;4178204;34;20198;-60
2022/04/17 08:32:40;;;;;;;4.65;1.80;;;;;;;;;;4190997;34;20132;-60
2022/04/17 08:35:07;;;;;;;36.42;6.57;;;;;;;;;;4190934;34;20120;-61
2022/04/17 08:37:32;;;;;;;3.37;2.42;;;;;;;;;;4191122;34;20115;-60
2022/04/17 08:39:58;;;;;;;1.08;1.08;;;;;;;;;;4191169;34;20201;-61
2022/04/17 08:42:26;;;;;;;3.40;2.00;;;;;;;;;;4190796;34;20594;-60
2022/04/17 08:45:10;;;;;;;8.10;2.85;;;;;;;;;;4178263;34;20125;-60
2022/04/17 08:47:38;;;;;;;6.90;2.50;;;;;;;;;;4178359;34;20106;-59
2022/04/17 08:50:08;;;;;;;6.25;2.20;;;;;;;;;;4177882;34;20082;-60
2022/04/17 08:52:35;;;;;;;4.97;2.40;;;;;;;;;;4178066;34;20125;-59
2022/04/17 08:55:02;;;;;;;5.72;3.50;;;;;;;;;;4178020;34;20113;-60
2022/04/17 08:57:28;;;;;;;5.30;3.37;;;;;;;;;;4178095;34;20218;-61
2022/04/17 08:59:54;;;;;;;5.43;2.97;;;;;;;;;;4190740;34;20122;-61
2022/04/17 09:02:20;;;;;;;7.35;3.95;;;;;;;;;;4190554;34;20521;-60
2022/04/17 09:04:46;;;;;;;13.32;3.40;;;;;;;;;;4190679;34;20105;-60
2022/04/17 09:07:13;;;;;;;6.75;2.62;;;;;;;;;;4190642;34;20106;-61
2022/04/17 09:09:49;;;;;;;7.07;2.65;;;;;;;;;;4166384;34;20593;-61
2022/04/17 09:12:19;;;;;;;9.90;2.80;;;;;;;;;;4177869;34;20130;-62
2022/04/17 09:14:45;;;;;;;6.68;3.00;;;;;;;;;;4190958;34;20149;-61
2022/04/17 09:17:11;;;;;;;9.70;2.70;;;;;;;;;;4190596;34;20114;-59
2022/04/17 09:19:38;;;;;;;4.93;2.37;;;;;;;;;;4190708;34;20460;-59
2022/04/17 09:22:05;;;;;;;6.25;2.53;;;;;;;;;;4177621;34;20098;-60
2022/04/17 09:24:37;;;;;;;4.37;2.53;;;;;;;;;;4178102;34;20581;-60
2022/04/17 09:27:04;;;;;;;11.30;3.05;;;;;;;;;;4190636;34;20129;-62
2022/04/17 09:29:36;;;;;;;7.75;3.00;;;;;;;;;;4190703;34;20095;-60
2022/04/17 09:32:05;;;;;;;14.93;4.35;;;;;;;;;;4177884;34;20102;-62
2022/04/17 09:34:52;;;;;;;26.50;3.47;;;;;;;;;;4190778;34;20198;-60
2022/04/17 09:37:19;;;;;;;5.82;2.95;;;;;;;;;;4190475;34;20160;-60
2022/04/17 09:39:46;;;;;;;5.37;2.78;;;;;;;;;;4190331;34;20149;-61
2022/04/17 09:42:13;;;;;;;21.33;4.50;;;;;;;;;;4190327;34;20554;-60
2022/04/17 09:44:46;;;;;;;17.45;4.50;;;;;;;;;;4190281;34;20610;-60
2022/04/17 09:47:25;;;;;;;29.98;6.93;;;;;;;;;;4190066;34;20141;-60
2022/04/17 09:49:51;;;;;;;6.07;2.05;;;;;;;;;;4177712;34;20222;-60
2022/04/17 09:52:18;;;;;;;23.90;3.58;;;;;;;;;;4190123;34;20117;-60
2022/04/17 09:54:44;;;;;;;19.95;3.17;;;;;;;;;;4190480;34;20156;-60
2022/04/17 09:57:12;;;;;;;14.18;2.03;;;;;;;;;;4177638;34;20217;-59
2022/04/17 09:59:38;;;;;;;0.90;0.90;;;;;;;;;;4190210;34;20129;-60
2022/04/17 10:02:07;;;;;;;7.45;2.58;;;;;;;;;;4190357;34;20205;-59
2022/04/17 10:04:36;;;;;;;2.10;1.83;;;;;;;;;;4190199;34;20622;-60
2022/04/17 10:07:04;;;;;;;3.45;1.55;;;;;;;;;;4177335;34;20152;-60
2022/04/17 10:09:31;;;;;;;16.77;2.40;;;;;;;;;;4177599;34;20130;-60
2022/04/17 10:11:59;;;;;;;3.58;2.10;;;;;;;;;;4190051;34;20503;-60
2022/04/17 10:14:28;;;;;;;17.60;2.30;;;;;;;;;;4191466;34;20141;-59
2022/04/17 10:16:57;;;;;;;5.07;2.33;;;;;;;;;;4179518;34;20278;-60
2022/04/17 10:19:25;;;;;;;4.53;1.90;;;;;;;;;;4192119;34;20608;-60
2022/04/17 10:21:52;;;;;;;4.97;2.05;;;;;;;;;;4191882;34;20118;-59
2022/04/17 10:24:19;;;;;;;10.93;2.62;;;;;;;;;;4168459;34;20086;-61
2022/04/17 10:26:47;;;;;;;5.85;2.37;;;;;;;;;;4167918;34;20124;-59
2022/04/17 10:29:28;;;;;;;3.42;1.87;;;;;;;;;;4179254;34;20145;-59
2022/04/17 10:32:21;;;;;;;1.92;1.70;;;;;;;;;;4179003;34;20087;-59
2022/04/17 10:34:50;;;;;;;5.28;2.10;;;;;;;;;;4191961;34;20089;-59
2022/04/17 10:37:41;;;;;;;6.87;2.00;;;;;;;;;;4191873;34;20117;-60
2022/04/17 10:40:10;;;;;;;1.50;1.40;;;;;;;;;;4179476;34;20148;-60
2022/04/17 10:42:37;;;;;;;4.68;1.70;;;;;;;;;;4191873;34;20213;-60
2022/04/17 10:45:04;;;;;;;4.82;2.20;;;;;;;;;;4179054;34;20193;-59
2022/04/17 10:47:30;;;;;;;2.83;1.98;;;;;;;;;;4191887;34;20126;-59
2022/04/17 10:49:57;;;;;;;7.72;3.47;;;;;;;;;;4191718;34;20114;-58
2022/04/17 10:52:31;;;;;;;5.75;3.12;;;;;;;;;;4179235;34;20141;-60
2022/04/17 10:55:14;;;;;;;2.55;2.08;;;;;;;;;;4191893;34;20482;-59
2022/04/17 10:57:50;;;;;;;4.57;3.15;;;;;;;;;;4192213;34;20090;-59
2022/04/17 11:00:32;;;;;;;5.72;3.60;;;;;;;;;;4179229;34;20106;-58
2022/04/17 11:03:01;;;;;;;12.15;7.37;;;;;;;;;;4192029;34;20102;-59
2022/04/17 11:08:57;;;;;;;5.82;4.30;;;;;;;;;;4178716;34;20214;-59
2022/04/17 11:11:40;;;;;;;6.28;4.05;;;;;;;;;;4178875;34;20202;-59
2022/04/17 11:14:11;;;;;;;9.68;5.20;;;;;;;;;;4191283;34;20526;-59
2022/04/17 11:16:52;;;;;;;8.73;4.90;;;;;;;;;;4191745;34;20552;-59
2022/04/17 11:19:21;;;;;;;1.00;1.00;;;;;;;;;;4191735;34;20095;-59
2022/04/17 11:22:07;;;;;;;4.80;3.40;;;;;;;;;;4178501;34;20157;-61
2022/04/17 11:24:54;;;;;;;13.75;3.22;;;;;;;;;;4189084;34;20194;-58
2022/04/17 11:27:49;;;;;;;11.98;4.47;;;;;;;;;;4178359;34;20118;-60
2022/04/17 11:30:18;;;;;;;27.33;10.32;;;;;;;;;;4191421;34;20221;-60
2022/04/17 11:32:46;;;;;;;23.25;10.85;;;;;;;;;;4191576;34;20117;-59
2022/04/17 11:35:18;;;;;;;32.40;15.23;;;;;;;;;;4178746;34;20194;-59
2022/04/17 11:37:57;;;;;;;28.95;13.25;;;;;;;;;;4191849;34;20142;-59
2022/04/17 11:40:26;;;;;;;12.68;3.47;;;;;;;;;;4191439;34;20108;-59
2022/04/17 11:42:54;;;;;;;4.47;2.45;;;;;;;;;;4191429;34;20616;-59
2022/04/17 11:45:22;;;;;;;7.32;2.75;;;;;;;;;;4178538;34;20110;-59
2022/04/17 11:47:49;;;;;;;11.57;2.37;;;;;;;;;;4190738;34;20132;-59
2022/04/17 11:50:23;;;;;;;4.43;2.80;;;;;;;;;;4191502;34;20086;-60
2022/04/17 11:52:51;;;;;;;5.35;3.28;;;;;;;;;;4191779;34;20114;-60
2022/04/17 11:55:22;;;;;;;8.40;3.30;;;;;;;;;;4191479;34;20189;-60
2022/04/17 11:57:48;;;;;;;16.25;5.45;;;;;;;;;;4191410;34;20412;-59
2022/04/17 12:00:14;;;;;;;5.35;4.00;;;;;;;;;;4181525;34;20170;-59
2022/04/17 12:02:40;;;;;;;13.50;6.15;;;;;;;;;;4177894;34;20114;-60
2022/04/17 12:05:12;;;;;;;14.05;7.47;;;;;;;;;;4177415;34;20129;-61
2022/04/17 12:07:38;;;;;;;11.23;5.72;;;;;;;;;;4165083;34;20095;-60
2022/04/17 12:10:10;;;;;;;16.52;4.32;;;;;;;;;;4175897;34;20455;-60
2022/04/17 12:12:45;;;;;;;8.98;4.32;;;;;;;;;;4177701;34;20199;-60
2022/04/17 12:15:11;;;;;;;;;;;;;;;;;;4176311;34;20106;-59
2022/04/17 12:17:38;;;;;;;8.80;2.90;;;;;;;;;;4177414;34;19962;-59
2022/04/17 12:20:19;;;;;;;5.57;2.50;;;;;;;;;;4176111;34;20132;-59
2022/04/17 12:22:45;;;;;;;14.45;2.70;;;;;;;;;;4177327;34;20114;-59
2022/04/17 12:25:24;;;;;;;10.20;4.40;;;;;;;;;;4187320;34;20539;-60
2022/04/17 12:27:52;;;;;;;29.45;7.75;;;;;;;;;;4197466;34;20097;-59
2022/04/17 12:30:25;;;;;;;22.58;9.45;;;;;;;;;;4201714;34;20118;-59
2022/04/17 12:32:55;;;;;;;12.40;5.37;;;;;;;;;;4195462;34;20125;-60
2022/04/17 12:35:25;;;;;;;7.45;3.65;;;;;;;;;;4204824;34;20113;-60
2022/04/17 12:38:04;;;;;;;7.47;3.00;;;;;;;;;;4198267;34;20105;-60
2022/04/17 12:40:31;;;;;;;12.55;4.78;;;;;;;;;;4194163;34;20117;-60
2022/04/17 12:43:33;;;;;;;6.75;3.90;;;;;;;;;;4174445;34;20088;-60
2022/04/17 12:46:04;;;;;;;5.60;3.35;;;;;;;;;;4146482;34;20108;-61
2022/04/17 12:48:34;;;;;;;5.95;3.17;;;;;;;;;;4172204;34;20176;-59
2022/04/17 12:51:05;;;;;;;7.30;3.05;;;;;;;;;;4189885;34;20135;-60
2022/04/17 12:53:34;;;;;;;6.70;4.05;;;;;;;;;;4174498;34;20094;-60
2022/04/17 12:56:00;;;;;;;5.20;3.85;;;;;;;;;;4164279;34;20603;-60
2022/04/17 12:58:26;;;;;;;6.60;2.83;;;;;;;;;;4175222;34;20110;-61
2022/04/17 13:00:57;;;;;;;4.65;3.60;;;;;;;;;;4177131;34;20194;-61
2022/04/17 13:03:33;;;;;;;7.00;3.55;;;;;;;;;;4189872;34;20102;-58
2022/04/17 13:05:59;;;;;;;13.18;3.55;;;;;;;;;;4190677;34;20117;-60
2022/04/17 13:08:25;;;;;;;24.73;12.90;;;;;;;;;;4190314;34;20186;-61
2022/04/17 13:10:51;;;;;;;22.65;8.98;;;;;;;;;;4190515;34;20114;-66
2022/04/17 13:13:17;;;;;;;20.83;9.57;;;;;;;;;;4177680;34;20106;-62
2022/04/17 13:15:43;;;;;;;20.30;10.82;;;;;;;;;;4189090;34;20122;-59
2022/04/17 13:18:09;;;;;;;21.05;10.60;;;;;;;;;;4190638;34;20098;-60
2022/04/17 13:20:35;;;;;;;16.90;7.47;;;;;;;;;;4190061;34;20109;-58
2022/04/17 13:23:08;;;;;;;20.50;8.38;;;;;;;;;;4182870;34;20194;-58
2022/04/17 13:25:34;;;;;;;9.40;6.55;;;;;;;;;;4176537;34;20109;-60
2022/04/17 13:28:00;;;;;;;10.60;5.45;;;;;;;;;;4195558;34;20613;-59
2022/04/17 13:30:26;;;;;;;34.70;8.27;;;;;;;;;;4193049;34;20197;-57
2022/04/17 13:32:52;;;;;;;4.95;3.72;;;;;;;;;;4193579;34;20109;-59
2022/04/17 13:35:18;;;;;;;13.55;3.47;;;;;;;;;;4189949;34;20110;-58
2022/04/17 13:40:31;;;;;;;6.72;4.12;;;;;;;;;;4187529;34;20102;-60
2022/04/17 13:42:56;;;;;;;16.42;4.85;;;;;;;;;;4184574;34;20583;-61
2022/04/17 13:45:22;;;;;;;7.37;4.30;;;;;;;;;;4176023;34;20110;-59
2022/04/17 13:47:48;;;;;;;11.20;4.40;;;;;;;;;;4185954;34;20124;-60
2022/04/17 13:50:14;;;;;;;8.18;4.30;;;;;;;;;;4179553;34;20148;-60
2022/04/17 13:52:41;;;;;;;12.70;6.57;;;;;;;;;;4188824;34;20466;-60
2022/04/17 13:55:07;;;;;;;14.02;8.80;;;;;;;;;;4185602;34;20130;-58
2022/04/17 13:57:33;;;;;;;11.63;7.55;;;;;;;;;;4175717;34;20113;-59
2022/04/17 13:59:59;;;;;;;10.15;5.50;;;;;;;;;;4187724;34;20221;-59
2022/04/17 14:02:25;;;;;;;11.40;4.28;;;;;;;;;;4189014;34;20125;-59
2022/04/17 14:04:51;;;;;;;8.23;4.07;;;;;;;;;;4164730;34;20134;-61
2022/04/17 14:07:17;;;;;;;17.02;5.45;;;;;;;;;;4189122;34;20145;-61
2022/04/17 14:09:43;;;;;;;7.80;3.92;;;;;;;;;;4187285;34;20198;-60
2022/04/17 14:12:12;;;;;;;4.35;2.87;;;;;;;;;;4189307;34;20831;-60
2022/04/17 14:14:42;;;;;;;7.95;4.10;;;;;;;;;;4162474;34;20141;-63
2022/04/17 14:17:09;;;;;;;6.95;2.95;;;;;;;;;;4174443;34;20121;-63
2022/04/17 14:19:35;;;;;;;8.98;3.10;;;;;;;;;;4182190;34;20447;-63
2022/04/17 14:22:03;;;;;;;3.75;2.75;;;;;;;;;;4166003;34;20155;-64
2022/04/17 14:24:29;;;;;;;6.32;3.05;;;;;;;;;;4173389;34;20097;-64
2022/04/17 14:26:55;;;;;;;9.27;3.85;;;;;;;;;;4184830;34;20206;-64
2022/04/17 14:29:21;;;;;;;8.88;4.68;;;;;;;;;;4177313;34;20106;-62
2022/04/17 14:31:47;;;;;;;9.77;3.33;;;;;;;;;;4163024;34;20563;-60
2022/04/17 14:34:14;;;;;;;9.63;6.37;;;;;;;;;;4173450;34;20499;-62
2022/04/17 14:36:40;;;;;;;14.80;7.43;;;;;;;;;;4174500;34;20095;-63
2022/04/17 14:39:07;;;;;;;7.53;6.15;;;;;;;;;;4165902;34;20098;-64
2022/04/17 14:41:33;;;;;;;8.95;5.05;;;;;;;;;;4189171;34;20090;-61
2022/04/17 14:43:59;;;;;;;5.53;4.05;;;;;;;;;;4164903;34;20125;-63
2022/04/17 14:46:25;;;;;;;10.07;3.80;;;;;;;;;;4185320;34;20200;-64
2022/04/17 14:48:51;;;;;;;6.20;3.50;;;;;;;;;;4203217;34;20671;-63
2022/04/17 14:51:17;;;;;;;13.75;4.00;;;;;;;;;;4202942;34;20098;-63
2022/04/17 14:53:45;;;;;;;11.98;3.58;;;;;;;;;;4191839;34;20090;-63
2022/04/17 14:56:11;;;;;;;6.62;3.60;;;;;;;;;;4188063;34;20126;-63
2022/04/17 14:58:38;;;;;;;20.05;4.20;;;;;;;;;;4175822;34;20141;-68
2022/04/17 15:01:04;;;;;;;10.25;3.90;;;;;;;;;;4190515;34;20495;-62
2022/04/17 15:03:31;;;;;;;8.10;3.33;;;;;;;;;;4189473;34;20113;-62
2022/04/17 15:05:57;;;;;;;7.15;3.62;;;;;;;;;;4177930;34;20126;-63
2022/04/17 15:08:23;;;;;;;5.85;4.30;;;;;;;;;;4190534;34;20444;-63
2022/04/17 15:10:52;;;;;;;11.15;5.00;;;;;;;;;;4177670;34;20122;-62
2022/04/17 15:13:19;;;;;;;15.05;6.10;;;;;;;;;;4177964;34;20533;-65
2022/04/17 15:15:45;;;;;;;11.77;6.12;;;;;;;;;;4190042;34;20190;-62
2022/04/17 15:18:12;;;;;;;20.20;6.65;;;;;;;;;;4153915;34;20130;-65
2022/04/17 15:20:38;;;;;;;13.07;6.47;;;;;;;;;;4177553;34;20551;-63